createdAt,value
2023-03-06T00:09:46.844Z,100696.63
2023-03-06T00:19:48.084Z,100679.94
2023-03-06T00:29:49.348Z,100671.38
2023-03-06T00:39:50.593Z,100662.75
2023-03-06T00:49:51.820Z,100649.69
2023-03-06T00:59:54.212Z,100647.03
2023-03-06T01:09:55.420Z,100633.94
2023-03-06T01:19:56.663Z,100633.00
2023-03-06T01:29:57.956Z,100626.81
2023-03-06T01:39:59.217Z,100614.63
2023-03-06T01:50:00.496Z,100613.72
2023-03-06T02:00:01.740Z,100600.53
2023-03-06T02:10:02.980Z,100598.69
2023-03-06T02:20:04.248Z,100582.16
2023-03-06T02:30:05.518Z,100567.94
2023-03-06T02:40:06.763Z,100559.28
2023-03-06T02:50:07.995Z,100546.09
2023-03-06T03:00:09.220Z,100545.25
2023-03-06T03:10:10.480Z,100525.09
2023-03-06T03:20:11.756Z,100523.38
2023-03-06T03:30:12.975Z,100520.59
2023-03-06T03:40:14.256Z,100497.88
2023-03-06T03:50:15.518Z,100495.28
2023-03-06T04:00:16.794Z,100480.31
2023-03-06T04:10:18.061Z,100470.72
2023-03-06T04:20:19.310Z,100462.06
2023-03-06T04:30:20.549Z,100456.66
2023-03-06T04:40:21.825Z,100459.19
2023-03-06T04:50:23.239Z,100446.13
2023-03-06T05:00:24.507Z,100442.38
2023-03-06T05:10:25.743Z,100437.13
2023-03-06T05:20:26.996Z,100426.88
2023-03-06T05:30:28.236Z,100424.94
2023-03-06T05:40:29.499Z,100422.69
2023-03-06T05:50:31.763Z,100413.06
2023-03-06T06:00:33.013Z,100400.91
2023-03-06T06:10:34.285Z,100422.63
2023-03-06T06:20:35.565Z,100416.59
2023-03-06T06:30:36.823Z,100406.88
2023-03-06T06:40:38.054Z,100404.31
2023-03-06T06:50:39.287Z,100406.94
2023-03-06T07:00:40.550Z,100402.44
2023-03-06T07:10:41.803Z,100422.56
2023-03-06T07:20:43.070Z,100414.47
2023-03-06T07:30:44.331Z,100426.06
2023-03-06T07:40:45.596Z,100409.47
2023-03-06T07:50:46.857Z,100411.03
2023-03-06T08:00:48.080Z,100420.81
2023-03-06T08:10:49.335Z,100424.56
2023-03-06T08:20:50.588Z,100428.94
2023-03-06T08:30:51.858Z,100427.69
2023-03-06T08:40:53.113Z,100426.47
2023-03-06T08:50:54.352Z,100424.72
2023-03-06T09:00:55.628Z,100424.78
2023-03-06T09:10:56.946Z,100418.81
2023-03-06T09:20:58.219Z,100436.44
2023-03-06T09:30:59.621Z,100432.84
2023-03-06T09:41:00.916Z,100437.06
2023-03-06T09:51:02.186Z,100446.13
2023-03-06T10:01:03.450Z,100438.84
2023-03-06T10:11:04.689Z,100432.25
2023-03-06T10:21:18.870Z,100427.47
2023-03-06T10:31:20.750Z,100417.00
2023-03-06T10:41:24.333Z,100422.16
2023-03-06T10:51:25.605Z,100420.41
2023-03-06T11:01:26.880Z,100421.97
2023-03-06T11:11:37.148Z,100421.09
2023-03-06T11:21:38.909Z,100409.00
2023-03-06T11:31:40.173Z,100409.16
2023-03-06T11:41:41.436Z,100397.81
2023-03-06T11:51:42.786Z,100388.16
2023-03-06T12:01:44.099Z,100374.84
2023-03-06T12:11:45.402Z,100360.78
2023-03-06T12:21:46.673Z,100351.13
2023-03-06T12:31:47.951Z,100340.66
2023-03-06T12:41:49.242Z,100328.72
2023-03-06T12:51:50.594Z,100331.34
2023-03-06T13:01:51.941Z,100331.47
2023-03-06T13:11:56.550Z,100320.31
2023-03-06T13:22:05.524Z,100307.94
2023-03-06T13:32:15.350Z,100298.44
2023-03-06T13:42:20.523Z,100288.75
2023-03-06T13:52:28.287Z,100287.69
2023-03-06T14:02:39.137Z,100278.56
2023-03-06T14:12:46.611Z,100258.72
2023-03-06T14:22:54.799Z,100253.81
2023-03-06T14:33:02.621Z,100241.03
2023-03-06T14:43:12.597Z,100235.47
2023-03-06T14:53:22.879Z,100233.91
2023-03-06T15:03:28.410Z,100223.69
2023-03-06T15:13:36.818Z,100200.22
2023-03-06T15:23:44.645Z,100188.03
2023-03-06T15:33:52.224Z,100167.34
2023-03-06T15:43:59.949Z,100151.78
2023-03-06T15:54:12.305Z,100147.63
2023-03-06T16:04:17.032Z,100137.75
2023-03-06T16:14:24.645Z,100118.59
2023-03-06T16:24:32.875Z,100109.59
2023-03-06T16:34:41.713Z,100095.78
2023-03-06T16:44:50.113Z,100083.91
2023-03-06T16:54:51.695Z,100093.34
2023-03-06T17:04:52.994Z,100083.84
2023-03-06T17:14:56.311Z,100088.91
2023-03-06T17:24:57.568Z,100082.13
2023-03-06T17:34:58.820Z,100071.22
2023-03-06T17:45:00.081Z,100075.47
2023-03-06T17:55:01.312Z,100064.47
2023-03-06T18:05:03.029Z,100074.72
2023-03-06T18:15:04.316Z,100070.31
2023-03-06T18:25:05.586Z,100037.84
2023-03-06T18:35:06.844Z,100023.00
2023-03-06T18:45:08.088Z,100005.44
2023-03-06T18:55:09.347Z,99996.53
2023-03-06T19:05:10.632Z,99981.56
2023-03-06T19:15:11.921Z,99975.19
2023-03-06T19:25:13.182Z,99957.97
2023-03-06T19:35:14.464Z,99948.38
2023-03-06T19:45:15.744Z,99943.16
2023-03-06T19:55:17.008Z,99931.75
2023-03-06T20:05:18.290Z,99897.03
2023-03-06T20:15:19.548Z,99875.38
2023-03-06T20:25:20.769Z,99869.81
2023-03-06T20:35:22.033Z,99850.91
2023-03-06T20:45:23.342Z,99842.75
2023-03-06T20:55:24.626Z,99836.59
2023-03-06T21:05:25.909Z,99829.59
2023-03-06T21:15:27.161Z,99823.38
2023-03-06T21:25:28.440Z,99807.84
2023-03-06T21:35:29.708Z,99801.00
2023-03-06T21:45:31.039Z,99781.13
2023-03-06T21:55:32.300Z,99774.13
2023-03-06T22:05:33.568Z,99771.66
2023-03-06T22:15:34.853Z,99763.59
2023-03-06T22:25:36.112Z,99740.91
2023-03-06T22:35:37.456Z,99733.84
2023-03-06T22:45:38.735Z,99731.56
2023-03-06T22:55:39.987Z,99735.66
2023-03-06T23:05:41.210Z,99742.50
2023-03-06T23:15:42.534Z,99729.53
2023-03-06T23:25:43.891Z,99730.97
2023-03-06T23:35:45.215Z,99735.22
2023-03-06T23:45:46.510Z,99736.47
2023-03-06T23:55:47.779Z,99718.50
